createdAt,value
2018-09-30T00:01:38.856Z,101040.82
2018-09-30T00:04:07.733Z,101034.22
2018-09-30T00:06:36.608Z,101041.16
2018-09-30T00:09:07.388Z,101034.81
2018-09-30T00:11:36.221Z,101027.56
2018-09-30T00:14:05.764Z,101023.30
2018-09-30T00:16:34.972Z,101023.30
2018-09-30T00:19:03.992Z,101022.08
2018-09-30T00:21:38.448Z,101022.30
2018-09-30T00:24:12.788Z,101023.09
2018-09-30T00:26:46.664Z,101022.14
2018-09-30T00:29:22.040Z,101019.14
2018-09-30T00:31:50.898Z,101012.53
2018-09-30T00:34:26.772Z,101009.99
2018-09-30T00:36:57.615Z,101008.14
2018-09-30T00:39:28.401Z,101012.03
2018-09-30T00:41:57.184Z,101010.56
2018-09-30T00:44:27.387Z,101003.97
2018-09-30T00:46:56.196Z,101006.61
2018-09-30T00:49:25.365Z,101005.84
2018-09-30T00:51:54.182Z,101007.07
2018-09-30T00:54:23.052Z,101004.73
2018-09-30T00:56:51.920Z,100999.53
2018-09-30T00:59:20.749Z,101002.23
2018-09-30T01:01:49.572Z,101004.92
2018-09-30T01:04:19.851Z,100997.33
2018-09-30T01:06:48.648Z,100995.27
2018-09-30T01:09:17.511Z,100996.34
2018-09-30T01:11:46.743Z,100983.59
2018-09-30T01:14:15.597Z,100976.37
2018-09-30T01:16:44.408Z,100976.77
2018-09-30T01:19:13.244Z,100988.48
2018-09-30T01:21:42.069Z,100986.89
2018-09-30T01:24:10.877Z,100990.53
2018-09-30T01:26:39.746Z,100987.98
2018-09-30T01:29:11.116Z,100981.95
2018-09-30T01:31:39.977Z,100984.31
2018-09-30T01:34:08.871Z,100980.89
2018-09-30T01:36:38.072Z,100972.30
2018-09-30T01:39:10.982Z,100973.30
2018-09-30T01:41:39.785Z,100975.27
2018-09-30T01:44:08.598Z,100973.18
2018-09-30T01:46:37.429Z,100970.86
2018-09-30T01:49:06.308Z,100968.60
2018-09-30T01:51:35.160Z,100976.95
2018-09-30T01:54:05.201Z,100978.21
2018-09-30T01:56:34.079Z,100981.75
2018-09-30T01:59:02.931Z,100982.14
2018-09-30T02:01:31.745Z,100992.31
2018-09-30T02:04:01.153Z,100990.03
2018-09-30T02:06:29.973Z,100981.31
2018-09-30T02:08:58.808Z,100986.57
2018-09-30T02:11:27.689Z,100982.22
2018-09-30T02:13:56.520Z,100978.85
2018-09-30T02:16:25.333Z,100989.73
2018-09-30T02:18:54.581Z,100977.91
2018-09-30T02:21:23.399Z,100980.70
2018-09-30T02:23:52.230Z,100979.30
2018-09-30T02:26:21.479Z,100966.70
2018-09-30T02:28:50.274Z,100965.41
2018-09-30T02:31:24.497Z,100965.58
2018-09-30T02:33:53.350Z,100952.60
2018-09-30T02:36:22.264Z,100956.38
2018-09-30T02:38:51.069Z,100949.69
2018-09-30T02:41:23.190Z,100934.81
2018-09-30T02:43:52.001Z,100927.63
2018-09-30T02:46:20.877Z,100928.00
2018-09-30T02:48:49.693Z,100920.84
2018-09-30T02:51:18.547Z,100923.70
2018-09-30T02:53:47.381Z,100925.84
2018-09-30T02:56:16.556Z,100915.41
2018-09-30T02:58:45.400Z,100913.40
2018-09-30T03:01:14.275Z,100899.00
2018-09-30T03:03:43.045Z,100897.75
2018-09-30T03:06:16.383Z,100898.05
2018-09-30T03:08:50.212Z,100897.52
2018-09-30T03:11:19.528Z,100894.03
2018-09-30T03:13:48.542Z,100901.60
2018-09-30T03:16:17.360Z,100897.71
2018-09-30T03:18:46.503Z,100896.31
2018-09-30T03:21:15.328Z,100893.28
2018-09-30T03:23:47.911Z,100900.26
2018-09-30T03:26:16.720Z,100902.48
2018-09-30T03:28:51.766Z,100900.26
2018-09-30T03:31:20.612Z,100901.46
2018-09-30T03:33:49.403Z,100897.17
2018-09-30T03:36:20.211Z,100903.72
2018-09-30T03:38:49.520Z,100903.23
2018-09-30T03:41:18.343Z,100898.77
2018-09-30T03:43:47.155Z,100897.98
2018-09-30T03:46:15.957Z,100898.27
2018-09-30T03:48:45.426Z,100888.13
2018-09-30T03:51:14.685Z,100890.84
2018-09-30T03:53:45.173Z,100890.67
2018-09-30T03:56:13.991Z,100894.16
2018-09-30T03:58:43.229Z,100882.58
2018-09-30T04:01:12.055Z,100889.69
2018-09-30T04:03:44.212Z,100884.80
2018-09-30T04:06:13.441Z,100883.23
2018-09-30T04:08:42.367Z,100880.11
2018-09-30T04:11:11.240Z,100879.05
2018-09-30T04:13:51.453Z,100886.11
2018-09-30T04:16:20.288Z,100883.03
2018-09-30T04:21:29.110Z,100870.74
2018-09-30T04:24:07.877Z,100874.48
2018-09-30T04:26:37.321Z,100867.33
2018-09-30T04:29:06.358Z,100871.55
2018-09-30T04:31:41.721Z,100870.69
2018-09-30T04:34:10.621Z,100872.05
2018-09-30T04:36:39.425Z,100872.05
2018-09-30T04:39:20.076Z,100869.39
2018-09-30T04:41:48.895Z,100872.75
2018-09-30T04:44:18.100Z,100876.67
2018-09-30T04:46:47.069Z,100871.30
2018-09-30T04:49:18.959Z,100876.08
2018-09-30T04:51:48.200Z,100864.67
2018-09-30T04:54:17.147Z,100866.71
2018-09-30T04:56:46.159Z,100871.05
2018-09-30T04:59:15.432Z,100877.80
2018-09-30T05:01:44.622Z,100878.44
2018-09-30T05:04:13.444Z,100878.72
2018-09-30T05:06:42.607Z,100872.73
2018-09-30T05:09:11.575Z,100866.17
2018-09-30T05:11:40.383Z,100872.88
2018-09-30T05:14:09.324Z,100872.17
2018-09-30T05:16:45.213Z,100867.83
2018-09-30T05:19:14.037Z,100870.11
2018-09-30T05:21:42.864Z,100868.98
2018-09-30T05:24:11.671Z,100858.12
2018-09-30T05:26:40.817Z,100859.20
2018-09-30T05:29:09.630Z,100852.61
2018-09-30T05:31:38.456Z,100858.42
2018-09-30T05:34:07.618Z,100859.47
2018-09-30T05:36:36.465Z,100860.78
2018-09-30T05:39:07.480Z,100857.26
2018-09-30T05:41:39.558Z,100858.23
2018-09-30T05:44:09.386Z,100857.45
2018-09-30T05:46:38.410Z,100857.73
2018-09-30T05:49:07.536Z,100859.88
2018-09-30T05:51:36.991Z,100863.55
2018-09-30T05:54:05.940Z,100864.79
2018-09-30T05:56:41.599Z,100865.20
2018-09-30T05:59:10.616Z,100853.01
2018-09-30T06:01:39.525Z,100859.41
2018-09-30T06:04:09.324Z,100857.98
2018-09-30T06:06:38.255Z,100852.86
2018-09-30T06:09:10.559Z,100856.92
2018-09-30T06:11:43.949Z,100871.16
2018-09-30T06:14:13.282Z,100872.53
2018-09-30T06:16:42.169Z,100867.14
2018-09-30T06:19:11.538Z,100863.44
2018-09-30T06:21:41.120Z,100860.03
2018-09-30T06:24:10.969Z,100855.56
2018-09-30T06:26:40.951Z,100868.09
2018-09-30T06:29:10.970Z,100878.67
2018-09-30T06:31:41.571Z,100878.23
2018-09-30T06:34:10.464Z,100882.38
2018-09-30T06:36:39.239Z,100881.80
2018-09-30T06:39:10.616Z,100880.66
2018-09-30T06:44:23.327Z,100878.92
2018-09-30T06:46:52.169Z,100885.00
2018-09-30T06:49:22.277Z,100878.58
2018-09-30T06:51:51.158Z,100879.05
2018-09-30T06:54:20.075Z,100881.73
2018-09-30T06:56:48.922Z,100880.05
2018-09-30T06:59:17.833Z,100880.08
2018-09-30T07:01:46.663Z,100882.13
2018-09-30T07:04:15.790Z,100878.28
2018-09-30T07:06:44.649Z,100876.72
2018-09-30T07:09:15.237Z,100872.81
2018-09-30T07:11:44.489Z,100871.70
2018-09-30T07:14:13.353Z,100869.34
2018-09-30T07:16:42.244Z,100865.59
2018-09-30T07:19:11.519Z,100865.24
2018-09-30T07:21:40.363Z,100857.89
2018-09-30T07:24:09.240Z,100858.86
2018-09-30T07:26:38.505Z,100863.39
2018-09-30T07:29:07.446Z,100868.68
2018-09-30T07:31:36.459Z,100870.93
2018-09-30T07:34:06.126Z,100862.59
2018-09-30T07:36:35.279Z,100864.84
2018-09-30T07:39:05.024Z,100865.99
2018-09-30T07:41:45.101Z,100860.95
2018-09-30T07:46:53.769Z,100847.37
2018-09-30T07:49:27.371Z,100847.88
2018-09-30T07:51:56.256Z,100831.91
2018-09-30T07:54:25.441Z,100840.13
2018-09-30T07:56:54.293Z,100840.70
2018-09-30T07:59:23.254Z,100835.89
2018-09-30T08:02:04.214Z,100829.17
2018-09-30T08:04:33.081Z,100816.20
2018-09-30T08:07:02.604Z,100816.52
2018-09-30T08:09:37.283Z,100803.11
2018-09-30T08:12:06.157Z,100796.54
2018-09-30T08:14:37.793Z,100795.92
2018-09-30T08:17:11.520Z,100792.80
2018-09-30T08:19:40.441Z,100791.05
2018-09-30T08:22:09.675Z,100785.09
2018-09-30T08:24:38.606Z,100788.90
2018-09-30T08:27:17.115Z,100781.62
2018-09-30T08:32:21.846Z,100790.12
2018-09-30T08:34:55.451Z,100783.59
2018-09-30T08:37:29.761Z,100780.69
2018-09-30T08:40:07.900Z,100784.23
2018-09-30T08:42:37.237Z,100784.45
2018-09-30T08:47:46.126Z,100782.72
2018-09-30T08:50:15.431Z,100786.63
2018-09-30T08:52:44.278Z,100785.98
2018-09-30T08:55:18.417Z,100780.61
2018-09-30T08:57:47.705Z,100769.94
2018-09-30T09:00:16.617Z,100775.25
2018-09-30T09:02:45.564Z,100776.86
2018-09-30T09:05:14.914Z,100782.21
2018-09-30T09:07:44.995Z,100776.73
2018-09-30T09:10:14.259Z,100777.72
2018-09-30T09:12:43.485Z,100774.05
2018-09-30T09:15:12.379Z,100777.04
2018-09-30T09:17:41.290Z,100778.28
2018-09-30T09:20:10.579Z,100772.44
2018-09-30T09:22:39.467Z,100773.06
2018-09-30T09:25:08.578Z,100774.62
2018-09-30T09:27:39.169Z,100778.08
2018-09-30T09:30:08.094Z,100769.05
2018-09-30T09:32:37.537Z,100763.88
2018-09-30T09:35:14.615Z,100756.39
2018-09-30T09:37:43.449Z,100760.94
2018-09-30T09:40:12.388Z,100755.27
2018-09-30T09:42:41.785Z,100756.72
2018-09-30T09:45:10.660Z,100746.50
2018-09-30T09:47:45.614Z,100754.90
2018-09-30T09:50:14.837Z,100744.91
2018-09-30T09:52:43.717Z,100734.29
2018-09-30T09:55:12.557Z,100737.68
2018-09-30T09:57:41.830Z,100728.09
2018-09-30T10:00:10.915Z,100719.67
2018-09-30T10:02:43.512Z,100716.38
2018-09-30T10:05:12.867Z,100711.20
2018-09-30T10:07:41.641Z,100712.59
2018-09-30T10:10:10.554Z,100705.84
2018-09-30T10:12:39.744Z,100702.03
2018-09-30T10:15:08.633Z,100695.26
2018-09-30T10:17:37.703Z,100689.00
2018-09-30T10:20:08.905Z,100689.06
2018-09-30T10:22:36.872Z,100688.14
2018-09-30T10:25:16.600Z,100687.03
2018-09-30T10:27:48.875Z,100686.87
2018-09-30T10:30:17.731Z,100683.16
2018-09-30T10:32:46.705Z,100678.88
2018-09-30T10:35:15.827Z,100677.90
2018-09-30T10:37:44.821Z,100672.53
2018-09-30T10:40:24.607Z,100667.83
2018-09-30T10:42:53.808Z,100667.17
2018-09-30T10:45:22.661Z,100663.25
2018-09-30T10:47:51.530Z,100661.68
2018-09-30T10:50:20.832Z,100643.90
2018-09-30T10:52:49.667Z,100642.62
2018-09-30T10:55:18.722Z,100639.95
2018-09-30T10:57:47.927Z,100633.71
2018-09-30T11:00:16.847Z,100622.80
2018-09-30T11:02:45.763Z,100625.31
2018-09-30T11:05:20.411Z,100624.46
2018-09-30T11:07:49.196Z,100621.55
2018-09-30T11:10:18.035Z,100621.62
2018-09-30T11:12:46.900Z,100611.55
2018-09-30T11:15:15.829Z,100606.02
2018-09-30T11:17:45.422Z,100607.34
2018-09-30T11:20:14.384Z,100592.70
2018-09-30T11:22:46.296Z,100592.43
2018-09-30T11:25:15.514Z,100591.11
2018-09-30T11:27:44.422Z,100580.98
2018-09-30T11:30:14.874Z,100579.81
2018-09-30T11:32:44.075Z,100571.28
2018-09-30T11:35:13.053Z,100577.48
2018-09-30T11:37:41.950Z,100574.75
2018-09-30T11:40:11.312Z,100568.42
2018-09-30T11:42:40.216Z,100568.25
2018-09-30T11:45:15.144Z,100559.98
2018-09-30T11:47:44.081Z,100550.56
2018-09-30T11:50:12.945Z,100545.32
2018-09-30T11:52:42.302Z,100543.11
2018-09-30T11:55:11.229Z,100525.48
2018-09-30T11:57:40.373Z,100531.97
2018-09-30T12:00:09.280Z,100530.61
2018-09-30T12:02:38.197Z,100515.19
2018-09-30T12:05:07.644Z,100509.60
2018-09-30T12:07:37.696Z,100504.68
2018-09-30T12:10:06.836Z,100501.98
2018-09-30T12:12:38.725Z,100494.77
2018-09-30T12:15:07.836Z,100488.36
2018-09-30T12:17:37.219Z,100489.98
2018-09-30T12:20:06.688Z,100487.34
2018-09-30T12:22:37.956Z,100483.75
2018-09-30T12:25:06.880Z,100476.76
2018-09-30T12:27:37.959Z,100469.38
2018-09-30T12:30:07.389Z,100462.55
2018-09-30T12:32:37.905Z,100459.55
2018-09-30T12:35:06.989Z,100457.34
2018-09-30T12:37:36.228Z,100456.54
2018-09-30T12:40:05.899Z,100449.82
2018-09-30T12:42:40.765Z,100453.17
2018-09-30T12:45:09.971Z,100450.09
2018-09-30T12:47:39.752Z,100448.59
2018-09-30T12:50:08.719Z,100440.75
2018-09-30T12:52:38.161Z,100437.20
2018-09-30T12:55:07.636Z,100443.52
2018-09-30T12:57:36.689Z,100438.51
2018-09-30T13:00:08.454Z,100443.89
2018-09-30T13:02:38.071Z,100442.31
2018-09-30T13:05:07.724Z,100437.78
2018-09-30T13:07:40.344Z,100439.02
2018-09-30T13:10:09.248Z,100434.59
2018-09-30T13:12:39.265Z,100430.36
2018-09-30T13:15:08.668Z,100424.78
2018-09-30T13:17:37.558Z,100423.42
2018-09-30T13:20:09.656Z,100411.47
2018-09-30T13:22:39.341Z,100415.42
2018-09-30T13:25:08.540Z,100410.39
2018-09-30T13:27:43.447Z,100401.94
2018-09-30T13:30:19.145Z,100399.36
2018-09-30T13:32:48.941Z,100397.80
2018-09-30T13:35:17.884Z,100402.77
2018-09-30T13:37:46.853Z,100395.69
2018-09-30T13:40:15.761Z,100403.11
2018-09-30T13:54:31.140Z,100387.50
2018-09-30T13:57:00.190Z,100380.14
2018-09-30T13:59:29.536Z,100382.36
2018-09-30T14:01:59.844Z,100381.00
2018-09-30T14:04:31.794Z,100383.06
2018-09-30T14:07:01.964Z,100377.23
2018-09-30T14:09:31.175Z,100366.86
2018-09-30T14:12:00.174Z,100366.30
2018-09-30T14:14:29.589Z,100366.83
2018-09-30T14:16:58.613Z,100361.88
2018-09-30T14:19:27.604Z,100359.56
2018-09-30T14:21:57.090Z,100354.38
2018-09-30T14:24:26.074Z,100358.27
2018-09-30T14:26:55.016Z,100351.91
2018-09-30T14:29:24.285Z,100344.89
2018-09-30T14:31:53.300Z,100342.58
2018-09-30T14:34:22.314Z,100340.95
2018-09-30T14:36:51.720Z,100337.14
2018-09-30T14:39:20.687Z,100336.67
2018-09-30T14:41:49.665Z,100328.36
2018-09-30T14:44:19.137Z,100324.00
2018-09-30T14:46:48.056Z,100328.20
2018-09-30T14:49:17.079Z,100330.03
2018-09-30T14:51:46.376Z,100327.21
2018-09-30T14:54:15.525Z,100327.19
2018-09-30T14:56:44.487Z,100320.95
2018-09-30T14:59:13.955Z,100316.86
2018-09-30T15:01:43.081Z,100319.11
2018-09-30T15:04:12.216Z,100319.11
2018-09-30T15:06:41.818Z,100318.77
2018-09-30T15:09:12.068Z,100319.27
2018-09-30T15:11:41.489Z,100314.42
2018-09-30T15:16:56.810Z,100312.57
2018-09-30T15:19:26.582Z,100310.08
2018-09-30T15:21:55.690Z,100309.77
2018-09-30T15:24:24.990Z,100302.33
2018-09-30T15:26:54.562Z,100301.97
2018-09-30T15:29:23.846Z,100297.42
2018-09-30T15:31:58.336Z,100290.20
2018-09-30T15:34:29.774Z,100295.30
2018-09-30T15:37:06.306Z,100294.66
2018-09-30T15:39:35.880Z,100292.03
2018-09-30T15:42:05.846Z,100289.41
2018-09-30T15:44:35.208Z,100282.25
2018-09-30T15:47:05.076Z,100282.89
2018-09-30T15:49:34.451Z,100281.73
2018-09-30T15:52:04.704Z,100282.15
2018-09-30T15:54:34.469Z,100285.13
2018-09-30T15:57:04.075Z,100286.77
2018-09-30T15:59:33.364Z,100284.87
2018-09-30T16:02:04.355Z,100291.67
2018-09-30T16:04:33.951Z,100292.67
2018-09-30T16:07:03.462Z,100301.58
2018-09-30T16:09:32.772Z,100304.19
2018-09-30T16:12:03.857Z,100299.84
2018-09-30T16:14:33.652Z,100298.41
2018-09-30T16:17:03.183Z,100299.52
2018-09-30T16:19:32.731Z,100301.70
2018-09-30T16:24:26.972Z,100297.95
2018-09-30T16:26:59.075Z,100294.64
2018-09-30T16:29:28.851Z,100294.69
2018-09-30T16:31:58.201Z,100294.26
2018-09-30T16:34:27.605Z,100286.92
2018-09-30T16:36:57.615Z,100289.54
2018-09-30T16:39:28.928Z,100287.44
2018-09-30T16:41:58.335Z,100280.56
2018-09-30T16:44:28.150Z,100275.27
2018-09-30T16:46:57.461Z,100281.66
2018-09-30T16:49:27.296Z,100279.84
2018-09-30T16:51:56.959Z,100282.67
2018-09-30T16:54:26.618Z,100280.36
2018-09-30T16:56:56.297Z,100288.64
2018-09-30T16:59:26.087Z,100282.78
2018-09-30T17:01:56.366Z,100278.42
2018-09-30T17:04:25.716Z,100283.81
2018-09-30T17:06:55.426Z,100276.88
2018-09-30T17:09:24.711Z,100282.88
2018-09-30T17:11:54.097Z,100288.80
2018-09-30T17:14:23.887Z,100291.20
2018-09-30T17:16:54.405Z,100292.87
2018-09-30T17:19:23.765Z,100294.50
2018-09-30T17:21:54.857Z,100293.56
2018-09-30T17:24:25.166Z,100298.04
2018-09-30T17:26:55.426Z,100296.86
2018-09-30T17:29:25.095Z,100294.13
2018-09-30T17:31:54.565Z,100302.33
2018-09-30T17:34:24.115Z,100306.82
2018-09-30T17:36:54.124Z,100299.24
2018-09-30T17:39:23.481Z,100294.14
2018-09-30T17:41:53.840Z,100291.27
2018-09-30T17:44:30.019Z,100290.91
2018-09-30T17:46:59.429Z,100290.69
2018-09-30T17:49:29.165Z,100286.73
2018-09-30T17:51:58.551Z,100283.63
2018-09-30T17:54:28.043Z,100285.22
2018-09-30T17:56:58.627Z,100284.66
2018-09-30T17:59:28.655Z,100288.02
2018-09-30T18:01:58.157Z,100278.11
2018-09-30T18:04:28.270Z,100286.61
2018-09-30T18:06:57.568Z,100279.25
2018-09-30T18:09:27.381Z,100282.02
2018-09-30T18:11:57.550Z,100282.19
2018-09-30T18:14:26.864Z,100277.86
2018-09-30T18:16:57.007Z,100277.27
2018-09-30T18:19:26.837Z,100275.92
2018-09-30T18:21:56.236Z,100280.53
2018-09-30T18:24:26.150Z,100273.66
2018-09-30T18:26:56.175Z,100274.03
2018-09-30T18:29:26.602Z,100269.44
2018-09-30T18:31:57.191Z,100264.66
2018-09-30T18:34:27.064Z,100273.60
2018-09-30T18:36:56.444Z,100267.91
2018-09-30T18:39:26.392Z,100265.73
2018-09-30T18:41:56.588Z,100270.86
2018-09-30T18:44:26.997Z,100274.22
2018-09-30T18:46:56.604Z,100276.56
2018-09-30T18:49:27.326Z,100273.99
2018-09-30T18:51:57.716Z,100277.75
2018-09-30T18:54:27.078Z,100278.13
2018-09-30T18:56:57.114Z,100278.60
2018-09-30T18:59:26.441Z,100267.12
2018-09-30T19:01:56.645Z,100270.77
2018-09-30T19:04:26.375Z,100275.01
2018-09-30T19:06:55.825Z,100276.81
2018-09-30T19:09:25.173Z,100274.92
2018-09-30T19:11:55.005Z,100278.82
2018-09-30T19:14:24.445Z,100270.93
2018-09-30T19:16:54.837Z,100271.30
2018-09-30T19:19:25.767Z,100270.56
2018-09-30T19:21:55.225Z,100269.14
2018-09-30T19:24:24.615Z,100269.03
2018-09-30T19:26:55.293Z,100271.41
2018-09-30T19:29:24.699Z,100265.78
2018-09-30T19:31:54.249Z,100270.84
2018-09-30T19:36:58.905Z,100274.16
2018-09-30T19:39:28.262Z,100275.55
2018-09-30T19:41:59.405Z,100271.30
2018-09-30T19:44:28.808Z,100267.31
2018-09-30T19:46:59.486Z,100262.81
2018-09-30T19:49:31.278Z,100260.67
2018-09-30T19:52:02.723Z,100250.34
2018-09-30T19:54:33.688Z,100242.98
2018-09-30T19:57:04.135Z,100246.66
2018-09-30T20:00:05.180Z,100242.21
2018-09-30T20:02:35.061Z,100255.41
2018-09-30T20:05:06.836Z,100248.77
2018-09-30T20:07:37.240Z,100250.96
2018-09-30T20:10:09.690Z,100249.20
2018-09-30T20:12:41.865Z,100251.92
2018-09-30T20:15:12.367Z,100243.81
2018-09-30T20:17:43.771Z,100254.23
2018-09-30T20:20:16.976Z,100251.83
2018-09-30T20:22:48.813Z,100254.77
2018-09-30T20:25:22.116Z,100254.05
2018-09-30T20:27:52.582Z,100252.73
2018-09-30T20:30:22.601Z,100254.91
2018-09-30T20:32:53.149Z,100253.58
2018-09-30T20:35:25.100Z,100258.14
2018-09-30T20:37:55.544Z,100255.95
2018-09-30T20:40:25.664Z,100266.72
2018-09-30T20:42:55.385Z,100258.98
2018-09-30T20:45:25.276Z,100263.75
2018-09-30T20:47:55.321Z,100256.27
2018-09-30T20:50:24.849Z,100254.94
2018-09-30T20:52:54.698Z,100256.27
2018-09-30T20:55:25.189Z,100258.45
2018-09-30T20:57:55.777Z,100254.94
2018-09-30T21:00:26.620Z,100261.10
2018-09-30T21:02:57.156Z,100254.16
2018-09-30T21:06:34.008Z,100256.13
2018-09-30T21:09:05.457Z,100256.81
2018-09-30T21:11:35.207Z,100257.34
2018-09-30T21:14:05.709Z,100257.95
2018-09-30T21:16:35.839Z,100269.27
2018-09-30T21:19:06.606Z,100273.02
2018-09-30T21:21:36.121Z,100278.92
2018-09-30T21:24:05.797Z,100278.95
2018-09-30T21:26:35.211Z,100280.03
2018-09-30T21:29:05.241Z,100274.61
2018-09-30T21:31:34.106Z,100270.05
2018-09-30T21:34:04.898Z,100269.56
2018-09-30T21:36:35.086Z,100269.83
2018-09-30T21:39:04.173Z,100272.58
2018-09-30T21:41:33.046Z,100277.55
2018-09-30T21:44:03.134Z,100267.37
2018-09-30T21:46:31.997Z,100271.00
2018-09-30T21:49:00.946Z,100271.73
2018-09-30T21:51:30.212Z,100265.47
2018-09-30T21:53:59.060Z,100273.78
2018-09-30T21:56:27.920Z,100270.41
2018-09-30T21:58:57.205Z,100277.16
2018-09-30T22:01:26.145Z,100274.52
2018-09-30T22:03:54.960Z,100269.56
2018-09-30T22:06:23.830Z,100275.09
2018-09-30T22:08:52.724Z,100279.67
2018-09-30T22:11:22.036Z,100274.50
2018-09-30T22:13:50.933Z,100282.67
2018-09-30T22:16:19.811Z,100287.84
2018-09-30T22:18:49.129Z,100288.23
2018-09-30T22:21:17.988Z,100290.41
2018-09-30T22:23:46.820Z,100286.77
2018-09-30T22:26:16.017Z,100284.98
2018-09-30T22:28:44.900Z,100293.66
2018-09-30T22:31:13.740Z,100295.70
2018-09-30T22:33:42.917Z,100292.33
2018-09-30T22:36:11.738Z,100294.26
2018-09-30T22:38:40.593Z,100296.53
2018-09-30T22:41:09.847Z,100300.72
2018-09-30T22:43:38.669Z,100297.25
2018-09-30T22:46:07.562Z,100290.98
2018-09-30T22:48:36.970Z,100290.00
2018-09-30T22:51:05.911Z,100295.08
2018-09-30T22:53:34.833Z,100293.38
2018-09-30T22:56:05.070Z,100296.28
2018-09-30T22:58:33.952Z,100299.53
2018-09-30T23:01:02.857Z,100297.10
2018-09-30T23:03:32.130Z,100296.72
2018-09-30T23:06:01.034Z,100296.38
2018-09-30T23:08:29.952Z,100300.34
2018-09-30T23:10:59.317Z,100303.84
2018-09-30T23:13:28.242Z,100296.84
2018-09-30T23:15:57.136Z,100293.95
2018-09-30T23:18:26.526Z,100302.48
2018-09-30T23:20:55.395Z,100293.81
2018-09-30T23:23:24.277Z,100293.69
2018-09-30T23:25:53.601Z,100288.52
2018-09-30T23:28:22.441Z,100296.20
2018-09-30T23:30:51.307Z,100288.73
2018-09-30T23:33:20.628Z,100290.39
2018-09-30T23:35:49.502Z,100283.05
2018-09-30T23:38:18.340Z,100286.77
2018-09-30T23:40:47.538Z,100287.02
2018-09-30T23:43:16.367Z,100283.73
2018-09-30T23:45:45.193Z,100291.03
2018-09-30T23:48:14.621Z,100288.85
2018-09-30T23:50:43.436Z,100289.32
2018-09-30T23:53:12.302Z,100290.04
2018-09-30T23:55:41.742Z,100288.80
2018-09-30T23:58:13.597Z,100284.81
